createdAt,value
2023-05-23T00:00:42.840Z,7.88
2023-05-23T00:02:44.856Z,8.00
2023-05-23T00:04:46.563Z,8.80
2023-05-23T00:06:50.407Z,7.72
2023-05-23T00:08:52.518Z,8.70
2023-05-23T00:10:54.078Z,7.93
2023-05-23T00:12:55.552Z,9.25
2023-05-23T00:14:57.443Z,8.10
2023-05-23T00:17:02.053Z,8.43
2023-05-23T00:19:05.387Z,9.02
2023-05-23T00:21:06.973Z,9.55
2023-05-23T00:23:12.203Z,8.57
2023-05-23T00:25:13.953Z,8.05
2023-05-23T00:27:15.458Z,8.35
2023-05-23T00:29:17.552Z,8.23
2023-05-23T00:31:19.260Z,8.07
2023-05-23T00:33:22.616Z,8.35
2023-05-23T00:35:24.733Z,14.45
2023-05-23T00:37:26.253Z,8.35
2023-05-23T00:39:27.958Z,8.45
2023-05-23T00:41:30.617Z,8.27
2023-05-23T00:43:32.778Z,7.90
2023-05-23T00:45:34.300Z,8.30
2023-05-23T00:47:36.066Z,8.73
2023-05-23T00:49:38.343Z,8.65
2023-05-23T00:51:42.391Z,8.23
2023-05-23T00:53:50.144Z,8.65
2023-05-23T00:55:53.036Z,8.90
2023-05-23T00:57:57.127Z,7.85
2023-05-23T00:59:58.934Z,8.32
2023-05-23T01:02:02.361Z,9.57
2023-05-23T01:04:04.610Z,8.52
2023-05-23T01:06:07.345Z,7.95
2023-05-23T01:08:08.975Z,8.73
2023-05-23T01:10:11.548Z,8.23
2023-05-23T01:12:25.668Z,7.97
2023-05-23T01:14:35.267Z,7.88
2023-05-23T01:16:55.377Z,8.07
2023-05-23T01:19:25.185Z,8.23
2023-05-23T01:21:27.291Z,7.95
2023-05-23T01:23:56.144Z,8.10
2023-05-23T01:26:13.875Z,8.50
2023-05-23T01:28:22.216Z,8.68
2023-05-23T01:30:30.726Z,8.60
2023-05-23T01:32:32.957Z,7.80
2023-05-23T01:34:36.568Z,7.97
2023-05-23T01:36:43.149Z,8.35
2023-05-23T01:38:44.678Z,8.15
2023-05-23T01:40:46.383Z,8.00
2023-05-23T01:42:48.850Z,8.50
2023-05-23T01:44:50.580Z,8.65
2023-05-23T01:46:52.318Z,8.20
2023-05-23T01:48:55.784Z,8.52
2023-05-23T01:51:01.525Z,8.35
2023-05-23T01:53:04.329Z,8.68
2023-05-23T01:55:09.858Z,7.95
2023-05-23T01:57:13.727Z,8.82
2023-05-23T01:59:15.731Z,9.05
2023-05-23T02:01:21.123Z,8.55
2023-05-23T02:03:22.829Z,8.38
2023-05-23T02:05:25.275Z,7.88
2023-05-23T02:07:26.986Z,7.72
2023-05-23T02:09:28.558Z,8.18
2023-05-23T02:11:30.183Z,8.30
2023-05-23T02:13:32.912Z,8.55
2023-05-23T02:15:37.029Z,8.25
2023-05-23T02:17:41.593Z,7.90
2023-05-23T02:19:43.270Z,8.52
2023-05-23T02:21:44.899Z,7.25
2023-05-23T02:23:46.730Z,7.38
2023-05-23T02:25:52.098Z,8.18
2023-05-23T02:27:54.147Z,9.40
2023-05-23T02:29:56.735Z,8.27
2023-05-23T02:31:58.295Z,10.65
2023-05-23T02:33:59.941Z,8.27
2023-05-23T02:36:02.413Z,8.20
2023-05-23T02:38:05.135Z,7.82
2023-05-23T02:40:07.877Z,9.02
2023-05-23T02:42:10.943Z,8.45
2023-05-23T02:44:12.582Z,8.65
2023-05-23T02:46:14.236Z,7.85
2023-05-23T02:48:18.299Z,8.00
2023-05-23T02:50:20.615Z,8.60
2023-05-23T02:52:22.216Z,7.57
2023-05-23T02:54:23.759Z,7.65
2023-05-23T02:56:26.994Z,7.80
2023-05-23T02:58:29.838Z,8.00
2023-05-23T03:00:32.494Z,7.72
2023-05-23T03:02:34.316Z,7.70
2023-05-23T03:04:40.417Z,9.00
2023-05-23T03:06:46.377Z,8.23
2023-05-23T03:08:51.483Z,8.75
2023-05-23T03:10:53.308Z,8.10
2023-05-23T03:12:55.052Z,8.88
2023-05-23T03:14:59.453Z,9.35
2023-05-23T03:17:01.158Z,8.38
2023-05-23T03:19:04.990Z,9.80
2023-05-23T03:21:06.952Z,8.57
2023-05-23T03:23:08.656Z,8.20
2023-05-23T03:25:10.453Z,8.63
2023-05-23T03:27:12.218Z,8.20
2023-05-23T03:29:14.202Z,9.27
2023-05-23T03:31:18.679Z,8.23
2023-05-23T03:33:21.228Z,8.23
2023-05-23T03:35:22.967Z,8.63
2023-05-23T03:37:24.937Z,8.55
2023-05-23T03:39:33.955Z,9.07
2023-05-23T03:41:35.766Z,9.20
2023-05-23T03:43:37.634Z,11.85
2023-05-23T03:45:40.074Z,8.48
2023-05-23T03:47:47.362Z,8.95
2023-05-23T03:49:49.463Z,8.30
2023-05-23T03:51:51.216Z,7.53
2023-05-23T03:53:52.894Z,8.98
2023-05-23T03:55:54.653Z,8.40
2023-05-23T03:57:56.648Z,7.90
2023-05-23T03:59:58.562Z,8.35
2023-05-23T04:02:01.453Z,8.32
2023-05-23T04:04:05.817Z,9.57
2023-05-23T04:06:12.322Z,8.35
2023-05-23T04:08:22.322Z,7.47
2023-05-23T04:10:26.526Z,8.40
2023-05-23T04:12:30.743Z,8.75
2023-05-23T04:14:40.039Z,7.95
2023-05-23T04:16:42.485Z,8.57
2023-05-23T04:18:47.803Z,8.60
2023-05-23T04:20:49.866Z,9.43
2023-05-23T04:22:51.592Z,7.32
2023-05-23T04:24:53.384Z,7.38
2023-05-23T04:26:56.417Z,9.68
2023-05-23T04:28:59.179Z,7.40
2023-05-23T04:31:02.788Z,11.13
2023-05-23T04:33:08.248Z,7.65
2023-05-23T04:35:12.969Z,8.00
2023-05-23T04:37:17.375Z,6.93
2023-05-23T04:39:19.449Z,7.60
2023-05-23T04:41:41.025Z,8.00
2023-05-23T04:44:00.138Z,8.05
2023-05-23T04:46:14.695Z,7.68
2023-05-23T04:48:21.917Z,7.93
2023-05-23T04:50:24.322Z,7.72
2023-05-23T04:52:30.121Z,7.97
2023-05-23T04:54:31.753Z,6.88
2023-05-23T04:56:35.653Z,7.20
2023-05-23T04:58:37.332Z,7.00
2023-05-23T05:00:42.539Z,6.95
2023-05-23T05:02:44.594Z,7.70
2023-05-23T05:04:46.289Z,6.78
2023-05-23T05:06:48.737Z,9.40
2023-05-23T05:08:51.686Z,6.82
2023-05-23T05:10:54.654Z,7.18
2023-05-23T05:12:56.294Z,7.85
2023-05-23T05:14:58.623Z,7.20
2023-05-23T05:17:02.758Z,7.13
2023-05-23T05:19:12.359Z,8.88
2023-05-23T05:21:14.179Z,6.97
2023-05-23T05:23:16.204Z,7.05
2023-05-23T05:25:18.090Z,7.45
2023-05-23T05:27:19.754Z,7.50
2023-05-23T05:29:25.348Z,8.75
2023-05-23T05:31:28.548Z,6.75
2023-05-23T05:33:37.659Z,7.13
2023-05-23T05:35:44.225Z,7.88
2023-05-23T05:37:46.173Z,6.63
2023-05-23T05:39:48.306Z,6.35
2023-05-23T05:41:49.985Z,7.80
2023-05-23T05:43:51.586Z,6.13
2023-05-23T05:45:53.415Z,6.13
2023-05-23T05:47:55.093Z,6.45
2023-05-23T05:49:58.404Z,6.82
2023-05-23T05:52:00.135Z,6.68
2023-05-23T05:54:01.664Z,6.70
2023-05-23T05:56:03.269Z,6.88
2023-05-23T05:58:06.548Z,6.43
2023-05-23T06:00:22.052Z,6.53
2023-05-23T06:02:33.578Z,6.60
2023-05-23T06:04:35.278Z,8.57
2023-05-23T06:06:37.074Z,7.03
2023-05-23T06:08:38.905Z,7.72
2023-05-23T06:10:40.581Z,6.15
2023-05-23T06:12:43.086Z,7.18
2023-05-23T06:14:50.770Z,6.15
2023-05-23T06:16:52.709Z,6.68
2023-05-23T06:18:54.466Z,6.35
2023-05-23T06:20:58.062Z,6.65
2023-05-23T06:23:01.756Z,7.25
2023-05-23T06:25:03.920Z,6.47
2023-05-23T06:27:05.705Z,7.15
2023-05-23T06:29:07.267Z,6.60
2023-05-23T06:31:21.887Z,8.23
2023-05-23T06:33:23.484Z,6.78
2023-05-23T06:35:24.987Z,6.80
2023-05-23T06:37:27.579Z,7.10
2023-05-23T06:39:29.179Z,7.18
2023-05-23T06:41:30.898Z,7.10
2023-05-23T06:43:34.415Z,7.47
2023-05-23T06:45:58.012Z,6.70
2023-05-23T06:48:03.313Z,7.55
2023-05-23T06:50:06.912Z,6.72
2023-05-23T06:52:08.504Z,6.85
2023-05-23T06:54:11.319Z,7.32
2023-05-23T06:56:15.968Z,6.32
2023-05-23T06:58:28.008Z,6.70
2023-05-23T07:00:32.555Z,9.40
2023-05-23T07:02:48.727Z,7.45
2023-05-23T07:04:53.864Z,7.00
2023-05-23T07:07:15.402Z,7.03
2023-05-23T07:09:18.551Z,7.10
2023-05-23T07:11:22.936Z,7.13
2023-05-23T07:13:29.051Z,7.57
2023-05-23T07:15:30.889Z,6.55
2023-05-23T07:17:44.677Z,6.60
2023-05-23T07:19:48.424Z,6.82
2023-05-23T07:21:50.136Z,7.35
2023-05-23T07:23:53.822Z,6.68
2023-05-23T07:26:02.339Z,6.50
2023-05-23T07:28:22.240Z,7.53
2023-05-23T07:30:24.034Z,6.25
2023-05-23T07:32:25.713Z,10.35
2023-05-23T07:34:28.406Z,6.18
2023-05-23T07:36:35.302Z,6.80
2023-05-23T07:38:37.792Z,6.22
2023-05-23T07:40:40.512Z,5.68
2023-05-23T07:42:42.901Z,6.43
2023-05-23T07:44:44.596Z,7.97
2023-05-23T07:46:48.514Z,7.30
2023-05-23T07:48:50.666Z,6.70
2023-05-23T07:50:55.136Z,7.47
2023-05-23T07:52:58.082Z,6.97
2023-05-23T07:55:04.297Z,7.35
2023-05-23T07:57:09.708Z,7.72
2023-05-23T07:59:12.133Z,6.72
2023-05-23T08:01:15.266Z,7.13
2023-05-23T08:03:35.701Z,6.38
2023-05-23T08:05:43.893Z,6.88
2023-05-23T08:07:45.579Z,6.32
2023-05-23T08:09:47.220Z,6.95
2023-05-23T08:11:52.612Z,7.68
2023-05-23T08:13:55.553Z,6.40
2023-05-23T08:16:12.429Z,6.35
2023-05-23T08:18:14.407Z,7.07
2023-05-23T08:20:24.660Z,6.35
2023-05-23T08:22:26.306Z,6.53
2023-05-23T08:24:30.362Z,6.40
2023-05-23T08:26:34.908Z,6.40
2023-05-23T08:28:38.696Z,7.18
2023-05-23T08:30:40.929Z,6.70
2023-05-23T08:32:42.910Z,7.40
2023-05-23T08:34:44.570Z,6.70
2023-05-23T08:36:47.282Z,6.85
2023-05-23T08:38:53.792Z,6.55
2023-05-23T08:41:23.973Z,5.85
2023-05-23T08:43:31.230Z,7.03
2023-05-23T08:45:34.736Z,6.38
2023-05-23T08:47:47.104Z,6.43
2023-05-23T08:49:55.120Z,6.82
2023-05-23T08:52:02.419Z,8.60
2023-05-23T08:54:06.564Z,5.90
2023-05-23T08:56:09.646Z,6.13
2023-05-23T08:58:20.858Z,5.25
2023-05-23T09:00:28.361Z,5.43
2023-05-23T09:02:32.581Z,5.90
2023-05-23T09:04:44.698Z,5.63
2023-05-23T09:06:57.606Z,6.03
2023-05-23T09:08:59.960Z,5.28
2023-05-23T09:11:05.445Z,5.28
2023-05-23T09:13:14.456Z,5.00
2023-05-23T09:15:17.614Z,6.57
2023-05-23T09:17:21.326Z,5.30
2023-05-23T09:19:23.137Z,5.93
2023-05-23T09:21:31.924Z,5.50
2023-05-23T09:23:44.268Z,5.25
2023-05-23T09:25:47.957Z,5.28
2023-05-23T09:27:52.770Z,4.68
2023-05-23T09:29:54.381Z,4.63
2023-05-23T09:32:10.403Z,5.80
2023-05-23T09:34:13.377Z,5.32
2023-05-23T09:36:15.969Z,5.32
2023-05-23T09:38:21.620Z,4.97
2023-05-23T09:40:31.508Z,5.43
2023-05-23T09:42:35.433Z,4.50
2023-05-23T09:44:41.459Z,5.00
2023-05-23T09:46:43.852Z,4.50
2023-05-23T09:48:51.547Z,5.88
2023-05-23T09:50:55.942Z,4.85
2023-05-23T09:52:57.706Z,5.32
2023-05-23T09:55:00.186Z,4.80
2023-05-23T09:57:18.296Z,5.65
2023-05-23T09:59:37.804Z,5.20
2023-05-23T10:04:09.457Z,4.70
2023-05-23T10:06:29.547Z,4.38
2023-05-23T10:08:38.948Z,5.35
2023-05-23T10:11:05.408Z,5.15
2023-05-23T10:13:07.348Z,4.47
2023-05-23T10:15:11.942Z,4.68
2023-05-23T10:17:24.131Z,4.97
2023-05-23T10:19:32.396Z,4.53
2023-05-23T10:21:38.824Z,4.65
2023-05-23T10:23:42.333Z,4.07
2023-05-23T10:25:44.537Z,4.78
2023-05-23T10:27:54.549Z,4.18
2023-05-23T10:29:56.373Z,5.13
2023-05-23T10:31:58.959Z,4.38
2023-05-23T10:34:13.656Z,4.38
2023-05-23T10:36:22.408Z,3.60
2023-05-23T10:38:34.274Z,4.45
2023-05-23T10:40:57.468Z,3.83
2023-05-23T10:43:20.636Z,4.20
2023-05-23T10:45:28.229Z,4.07
2023-05-23T10:47:29.795Z,5.57
2023-05-23T10:49:45.980Z,4.20
2023-05-23T10:51:54.286Z,4.15
2023-05-23T10:53:55.913Z,3.65
2023-05-23T10:55:57.821Z,3.17
2023-05-23T10:58:35.529Z,3.67
2023-05-23T11:00:37.516Z,3.72
2023-05-23T11:02:55.614Z,3.25
2023-05-23T11:05:22.830Z,3.40
2023-05-23T11:07:32.284Z,3.35
2023-05-23T11:09:33.833Z,3.00
2023-05-23T11:11:50.526Z,3.28
2023-05-23T11:13:57.516Z,3.42
2023-05-23T11:15:59.171Z,2.88
2023-05-23T11:18:01.029Z,3.05
2023-05-23T11:20:09.714Z,2.85
2023-05-23T11:22:14.272Z,2.58
2023-05-23T11:24:17.610Z,2.70
2023-05-23T11:26:32.482Z,2.70
2023-05-23T11:28:57.786Z,2.45
2023-05-23T11:30:59.455Z,2.55
2023-05-23T11:33:01.316Z,2.25
2023-05-23T11:35:07.370Z,2.00
2023-05-23T11:37:09.592Z,2.50
2023-05-23T11:39:11.101Z,2.20
2023-05-23T11:41:12.811Z,2.88
2023-05-23T11:43:16.834Z,2.50
2023-05-23T11:45:22.415Z,3.67
2023-05-23T11:47:23.992Z,2.40
2023-05-23T11:49:25.539Z,2.67
2023-05-23T11:51:27.210Z,2.28
2023-05-23T11:53:29.026Z,2.40
2023-05-23T11:55:31.337Z,2.28
2023-05-23T11:57:34.066Z,2.75
2023-05-23T11:59:36.128Z,2.30
2023-05-23T12:01:37.932Z,2.50
2023-05-23T12:04:09.477Z,2.33
2023-05-23T12:06:12.779Z,2.60
2023-05-23T12:08:15.824Z,2.38
2023-05-23T12:10:18.349Z,2.40
2023-05-23T12:12:21.337Z,2.55
2023-05-23T12:14:23.251Z,2.83
2023-05-23T12:16:29.773Z,2.50
2023-05-23T12:18:32.536Z,2.45
2023-05-23T12:20:35.645Z,2.22
2023-05-23T12:22:37.385Z,2.45
2023-05-23T12:24:46.662Z,2.40
2023-05-23T12:26:48.100Z,2.53
2023-05-23T12:28:50.006Z,2.35
2023-05-23T12:30:51.667Z,2.10
2023-05-23T12:32:53.734Z,2.17
2023-05-23T12:34:55.568Z,3.17
2023-05-23T12:37:10.390Z,2.38
2023-05-23T12:39:26.548Z,2.42
2023-05-23T12:41:28.001Z,2.33
2023-05-23T12:43:29.514Z,3.22
2023-05-23T12:45:44.165Z,2.30
2023-05-23T12:47:45.962Z,2.67
2023-05-23T12:49:48.233Z,2.92
2023-05-23T12:51:49.729Z,2.20
2023-05-23T12:53:51.294Z,3.17
2023-05-23T12:55:55.460Z,2.80
2023-05-23T12:57:57.340Z,2.67
2023-05-23T12:59:59.252Z,2.53
2023-05-23T13:02:02.186Z,2.60
2023-05-23T13:04:03.975Z,2.30
2023-05-23T13:06:06.651Z,2.17
2023-05-23T13:08:08.504Z,2.58
2023-05-23T13:10:10.591Z,2.38
2023-05-23T13:12:12.528Z,2.38
2023-05-23T13:14:14.122Z,2.42
2023-05-23T13:16:16.659Z,2.25
2023-05-23T13:18:18.490Z,3.13
2023-05-23T13:20:23.579Z,2.75
2023-05-23T13:22:25.362Z,2.15
2023-05-23T13:24:27.367Z,2.05
2023-05-23T13:26:29.380Z,1.85
2023-05-23T13:28:31.096Z,2.30
2023-05-23T13:30:32.729Z,2.50
2023-05-23T13:32:34.236Z,2.13
2023-05-23T13:34:37.491Z,2.40
2023-05-23T13:36:39.111Z,2.58
2023-05-23T13:38:40.633Z,1.80
2023-05-23T13:40:42.367Z,2.17
2023-05-23T13:42:44.521Z,2.15
2023-05-23T13:44:46.208Z,2.17
2023-05-23T13:46:47.845Z,2.22
2023-05-23T13:48:49.413Z,2.25
2023-05-23T13:50:51.176Z,2.05
2023-05-23T13:52:53.863Z,1.70
2023-05-23T13:54:55.799Z,5.43
2023-05-23T13:56:57.956Z,2.63
2023-05-23T13:58:59.712Z,2.20
2023-05-23T14:01:01.186Z,2.08
2023-05-23T14:03:06.016Z,2.08
2023-05-23T14:05:08.245Z,2.00
2023-05-23T14:07:09.897Z,2.42
2023-05-23T14:09:13.215Z,2.10
2023-05-23T14:11:14.708Z,1.92
2023-05-23T14:13:16.490Z,4.10
2023-05-23T14:15:18.469Z,1.80
2023-05-23T14:17:21.066Z,2.20
2023-05-23T14:19:22.768Z,2.22
2023-05-23T14:21:24.459Z,2.20
2023-05-23T14:23:26.050Z,2.67
2023-05-23T14:25:27.741Z,2.05
2023-05-23T14:27:29.480Z,1.90
2023-05-23T14:29:31.774Z,1.80
2023-05-23T14:31:36.299Z,1.63
2023-05-23T14:33:37.881Z,1.98
2023-05-23T14:35:40.073Z,1.65
2023-05-23T14:37:41.862Z,2.92
2023-05-23T14:39:43.476Z,2.15
2023-05-23T14:41:49.176Z,1.80
2023-05-23T14:43:51.066Z,1.58
2023-05-23T14:45:52.909Z,1.77
2023-05-23T14:47:54.586Z,1.85
2023-05-23T14:49:56.147Z,2.10
2023-05-23T14:52:01.888Z,1.85
2023-05-23T14:54:03.529Z,1.80
2023-05-23T14:56:05.235Z,2.17
2023-05-23T14:58:07.203Z,1.88
2023-05-23T15:00:10.234Z,1.90
2023-05-23T15:02:12.477Z,1.67
2023-05-23T15:04:14.381Z,2.00
2023-05-23T15:06:41.694Z,2.22
2023-05-23T15:09:06.196Z,1.60
2023-05-23T15:11:09.666Z,1.50
2023-05-23T15:13:14.349Z,2.05
2023-05-23T15:15:22.752Z,1.70
2023-05-23T15:17:26.599Z,1.50
2023-05-23T15:19:28.773Z,1.60
2023-05-23T15:21:30.597Z,2.05
2023-05-23T15:23:32.465Z,1.88
2023-05-23T15:25:47.136Z,1.75
2023-05-23T15:27:53.620Z,1.42
2023-05-23T15:30:03.746Z,2.28
2023-05-23T15:32:09.564Z,2.75
2023-05-23T15:34:11.755Z,1.70
2023-05-23T15:36:16.289Z,2.30
2023-05-23T15:38:20.270Z,1.85
2023-05-23T15:40:22.380Z,1.55
2023-05-23T15:42:24.421Z,1.50
2023-05-23T15:44:26.185Z,1.40
2023-05-23T15:46:27.801Z,1.83
2023-05-23T15:48:29.554Z,1.83
2023-05-23T15:50:34.025Z,1.98
2023-05-23T15:52:35.616Z,1.52
2023-05-23T15:54:37.107Z,1.30
2023-05-23T15:56:38.875Z,1.90
2023-05-23T15:58:40.559Z,3.15
2023-05-23T16:00:42.336Z,1.45
2023-05-23T16:02:44.327Z,2.53
2023-05-23T16:04:46.140Z,1.60
2023-05-23T16:06:47.632Z,2.20
2023-05-23T16:08:49.172Z,1.63
2023-05-23T16:10:51.630Z,1.30
2023-05-23T16:12:53.272Z,1.20
2023-05-23T16:14:55.057Z,1.35
2023-05-23T16:16:57.153Z,1.60
2023-05-23T16:18:58.784Z,2.17
2023-05-23T16:21:00.616Z,1.73
2023-05-23T16:23:02.213Z,1.63
2023-05-23T16:25:06.028Z,1.58
2023-05-23T16:27:07.712Z,1.35
2023-05-23T16:29:11.273Z,1.58
2023-05-23T16:31:18.107Z,2.78
2023-05-23T16:33:19.994Z,1.58
2023-05-23T16:35:21.655Z,1.67
2023-05-23T16:37:23.718Z,1.60
2023-05-23T16:39:27.708Z,2.40
2023-05-23T16:41:29.712Z,1.77
2023-05-23T16:43:32.043Z,1.85
2023-05-23T16:45:33.798Z,2.22
2023-05-23T16:47:35.815Z,3.42
2023-05-23T16:49:37.532Z,1.50
2023-05-23T16:51:39.064Z,1.27
2023-05-23T16:53:40.691Z,1.70
2023-05-23T16:55:45.283Z,1.40
2023-05-23T16:57:46.916Z,1.48
2023-05-23T16:59:51.155Z,1.33
2023-05-23T17:01:52.969Z,1.52
2023-05-23T17:03:54.702Z,1.42
2023-05-23T17:05:56.417Z,1.42
2023-05-23T17:07:57.881Z,1.25
2023-05-23T17:10:01.251Z,1.38
2023-05-23T17:12:03.165Z,1.25
2023-05-23T17:14:04.674Z,2.42
2023-05-23T17:16:09.185Z,1.33
2023-05-23T17:18:11.125Z,1.10
2023-05-23T17:20:13.137Z,1.25
2023-05-23T17:22:14.924Z,1.20
2023-05-23T17:24:19.124Z,1.40
2023-05-23T17:26:20.803Z,1.23
2023-05-23T17:28:22.687Z,1.20
2023-05-23T17:30:24.250Z,1.50
2023-05-23T17:32:27.114Z,1.45
2023-05-23T17:34:28.892Z,1.20
2023-05-23T17:36:35.013Z,1.27
2023-05-23T17:38:38.520Z,1.92
2023-05-23T17:40:42.995Z,1.23
2023-05-23T17:42:44.829Z,1.10
2023-05-23T17:44:46.414Z,1.15
2023-05-23T17:46:47.963Z,1.98
2023-05-23T17:48:49.732Z,1.67
2023-05-23T17:50:52.126Z,1.20
2023-05-23T17:52:56.316Z,1.30
2023-05-23T17:55:00.938Z,1.00
2023-05-23T17:57:05.396Z,1.17
2023-05-23T17:59:07.270Z,1.20
2023-05-23T18:01:08.935Z,1.25
2023-05-23T18:03:10.554Z,1.38
2023-05-23T18:05:12.625Z,1.10
2023-05-23T18:07:18.065Z,1.48
2023-05-23T18:09:19.738Z,0.85
2023-05-23T18:11:22.882Z,1.05
2023-05-23T18:13:26.000Z,1.17
2023-05-23T18:15:27.563Z,1.80
2023-05-23T18:17:30.835Z,1.05
2023-05-23T18:19:32.604Z,4.55
2023-05-23T18:21:34.914Z,5.30
2023-05-23T18:23:39.858Z,5.63
2023-05-23T18:25:41.390Z,3.08
2023-05-23T18:27:46.195Z,2.42
2023-05-23T18:29:47.735Z,2.00
2023-05-23T18:31:49.428Z,2.00
2023-05-23T18:33:51.639Z,1.10
2023-05-23T18:35:53.474Z,1.55
2023-05-23T18:37:55.225Z,1.23
2023-05-23T18:39:58.784Z,1.27
2023-05-23T18:42:01.247Z,1.48
2023-05-23T18:44:04.958Z,1.40
2023-05-23T18:46:08.232Z,1.38
2023-05-23T18:48:09.893Z,1.40
2023-05-23T18:50:14.364Z,1.38
2023-05-23T18:52:16.057Z,1.33
2023-05-23T18:54:18.421Z,1.58
2023-05-23T18:56:23.095Z,1.55
2023-05-23T18:58:24.730Z,1.23
2023-05-23T19:00:26.367Z,1.50
2023-05-23T19:02:29.086Z,2.22
2023-05-23T19:04:32.366Z,1.25
2023-05-23T19:06:38.911Z,1.38
2023-05-23T19:08:42.251Z,1.52
2023-05-23T19:10:44.255Z,2.08
2023-05-23T19:12:46.261Z,2.22
2023-05-23T19:14:47.896Z,1.98
2023-05-23T19:16:49.635Z,2.60
2023-05-23T19:18:51.586Z,2.00
2023-05-23T19:20:54.208Z,2.00
2023-05-23T19:22:55.731Z,1.85
2023-05-23T19:24:58.428Z,3.72
2023-05-23T19:27:03.184Z,2.28
2023-05-23T19:29:04.946Z,2.13
2023-05-23T19:31:07.928Z,2.08
2023-05-23T19:33:10.177Z,2.05
2023-05-23T19:35:16.850Z,1.92
2023-05-23T19:37:18.889Z,1.60
2023-05-23T19:39:21.526Z,2.42
2023-05-23T19:41:29.144Z,2.42
2023-05-23T19:43:30.824Z,2.45
2023-05-23T19:45:32.478Z,1.63
2023-05-23T19:47:34.569Z,2.50
2023-05-23T19:49:36.452Z,2.33
2023-05-23T19:51:40.790Z,2.72
2023-05-23T19:53:42.449Z,2.30
2023-05-23T19:55:46.679Z,2.28
2023-05-23T19:57:51.813Z,1.67
2023-05-23T19:59:59.520Z,2.50
2023-05-23T20:02:01.470Z,2.85
2023-05-23T20:04:03.214Z,2.20
2023-05-23T20:06:05.255Z,2.17
2023-05-23T20:08:06.935Z,2.53
2023-05-23T20:10:09.057Z,2.70
2023-05-23T20:12:10.679Z,2.63
2023-05-23T20:14:12.528Z,2.17
2023-05-23T20:16:14.247Z,3.05
2023-05-23T20:18:15.803Z,3.05
2023-05-23T20:20:17.844Z,3.38
2023-05-23T20:22:19.541Z,3.67
2023-05-23T20:24:21.364Z,2.60
2023-05-23T20:26:24.425Z,3.28
2023-05-23T20:28:26.042Z,2.40
2023-05-23T20:30:28.001Z,2.83
2023-05-23T20:32:29.825Z,2.40
2023-05-23T20:34:31.856Z,2.90
2023-05-23T20:36:33.636Z,3.13
2023-05-23T20:38:35.701Z,4.00
2023-05-23T20:40:37.218Z,4.40
2023-05-23T20:42:41.453Z,4.18
2023-05-23T20:44:45.546Z,3.90
2023-05-23T20:46:47.626Z,3.58
2023-05-23T20:48:54.314Z,3.88
2023-05-23T20:50:58.508Z,3.95
2023-05-23T20:53:02.172Z,3.38
2023-05-23T20:55:04.814Z,3.00
2023-05-23T20:57:06.529Z,3.85
2023-05-23T20:59:08.201Z,4.43
2023-05-23T21:01:13.018Z,3.20
2023-05-23T21:03:17.270Z,4.88
2023-05-23T21:05:18.918Z,2.80
2023-05-23T21:07:20.636Z,3.50
2023-05-23T21:09:22.230Z,2.97
2023-05-23T21:11:23.840Z,3.50
2023-05-23T21:13:25.491Z,4.07
2023-05-23T21:15:28.059Z,2.47
2023-05-23T21:17:29.660Z,2.97
2023-05-23T21:19:35.401Z,3.17
2023-05-23T21:21:39.986Z,2.42
2023-05-23T21:23:41.562Z,3.05
2023-05-23T21:25:43.078Z,2.55
2023-05-23T21:27:47.071Z,5.90
2023-05-23T21:29:48.594Z,4.25
2023-05-23T21:31:50.293Z,4.35
2023-05-23T21:33:51.852Z,3.75
2023-05-23T21:35:53.601Z,7.00
2023-05-23T21:37:55.204Z,2.88
2023-05-23T21:39:56.888Z,3.65
2023-05-23T21:41:58.397Z,3.85
2023-05-23T21:43:59.944Z,3.30
2023-05-23T21:46:02.168Z,3.35
2023-05-23T21:48:04.050Z,3.72
2023-05-23T21:50:09.365Z,4.68
2023-05-23T21:52:10.930Z,5.68
2023-05-23T21:54:12.425Z,4.03
2023-05-23T21:56:13.956Z,5.20
2023-05-23T21:58:16.210Z,4.15
2023-05-23T22:00:19.460Z,4.40
2023-05-23T22:02:21.484Z,3.47
2023-05-23T22:04:23.120Z,2.60
2023-05-23T22:06:27.786Z,6.47
2023-05-23T22:08:33.085Z,4.57
2023-05-23T22:10:37.953Z,3.60
2023-05-23T22:12:41.199Z,3.95
2023-05-23T22:14:44.206Z,3.95
2023-05-23T22:16:46.587Z,3.17
2023-05-23T22:18:52.057Z,3.53
2023-05-23T22:20:53.895Z,4.50
2023-05-23T22:22:56.212Z,6.40
2023-05-23T22:24:57.732Z,4.63
2023-05-23T22:27:00.706Z,4.72
2023-05-23T22:29:04.315Z,3.83
2023-05-23T22:31:06.592Z,3.33
2023-05-23T22:33:13.974Z,4.55
2023-05-23T22:35:16.003Z,5.18
2023-05-23T22:37:18.440Z,3.58
2023-05-23T22:39:20.083Z,4.32
2023-05-23T22:41:24.691Z,4.35
2023-05-23T22:43:26.474Z,5.03
2023-05-23T22:45:33.493Z,5.00
2023-05-23T22:47:35.220Z,4.05
2023-05-23T22:49:42.460Z,4.85
2023-05-23T22:51:44.752Z,4.10
2023-05-23T22:53:46.377Z,5.05
2023-05-23T22:55:49.235Z,4.63
2023-05-23T22:57:50.764Z,3.22
2023-05-23T22:59:52.325Z,4.80
2023-05-23T23:01:53.918Z,4.38
2023-05-23T23:03:55.677Z,4.75
2023-05-23T23:05:57.568Z,3.65
2023-05-23T23:08:00.444Z,6.47
2023-05-23T23:10:01.903Z,4.13
2023-05-23T23:12:03.653Z,5.10
2023-05-23T23:14:05.164Z,4.43
2023-05-23T23:16:09.968Z,3.33
2023-05-23T23:18:14.904Z,5.22
2023-05-23T23:20:17.331Z,4.85
2023-05-23T23:22:19.033Z,3.20
2023-05-23T23:24:20.878Z,4.75
2023-05-23T23:26:23.210Z,3.25
2023-05-23T23:28:24.804Z,5.10
2023-05-23T23:30:26.392Z,4.15
2023-05-23T23:32:28.306Z,4.45
2023-05-23T23:34:30.035Z,5.95
2023-05-23T23:36:33.604Z,2.97
2023-05-23T23:38:38.231Z,4.43
2023-05-23T23:40:40.099Z,4.55
2023-05-23T23:42:41.818Z,3.92
2023-05-23T23:44:43.336Z,5.95
2023-05-23T23:46:45.178Z,5.88
2023-05-23T23:48:47.244Z,4.32
2023-05-23T23:50:49.194Z,4.88
2023-05-23T23:52:50.743Z,3.78
2023-05-23T23:54:54.497Z,6.60
2023-05-23T23:56:56.117Z,6.10
2023-05-23T23:59:00.980Z,4.88
